sensor_id;sensor_type;location;lat;lon;timestamp;pressure;altitude;pressure_sealevel;temperature;humidity
53758;BME280;39674;59.860;30.672;2023-06-10T00:00:46;102267.69;;;6.65;89.73
53758;BME280;39674;59.860;30.672;2023-06-10T00:03:31;102185.09;;;6.11;89.35
53758;BME280;39674;59.860;30.672;2023-06-10T00:10:32;102259.00;;;6.58;89.74
53758;BME280;39674;59.860;30.672;2023-06-10T00:13:47;102223.41;;;6.31;89.13
53758;BME280;39674;59.860;30.672;2023-06-10T00:16:51;102331.34;;;6.92;89.36
53758;BME280;39674;59.860;30.672;2023-06-10T00:19:55;102194.66;;;6.15;88.91
53758;BME280;39674;59.860;30.672;2023-06-10T00:22:50;102206.03;;;6.14;89.61
53758;BME280;39674;59.860;30.672;2023-06-10T00:25:55;102238.28;;;6.29;89.02
53758;BME280;39674;59.860;30.672;2023-06-10T00:29:03;102341.97;;;6.78;88.75
53758;BME280;39674;59.860;30.672;2023-06-10T00:47:09;102228.06;;;5.88;87.19
53758;BME280;39674;59.860;30.672;2023-06-10T00:50:09;102296.09;;;6.21;87.57
53758;BME280;39674;59.860;30.672;2023-06-10T00:53:09;102316.13;;;6.30;87.42
53758;BME280;39674;59.860;30.672;2023-06-10T00:56:53;102375.41;;;6.55;88.44
53758;BME280;39674;59.860;30.672;2023-06-10T01:17:12;102305.88;;;5.92;88.52
53758;BME280;39674;59.860;30.672;2023-06-10T01:20:40;102244.03;;;5.60;88.05
53758;BME280;39674;59.860;30.672;2023-06-10T01:52:27;102357.97;;;6.51;89.20
53758;BME280;39674;59.860;30.672;2023-06-10T02:03:00;102369.81;;;6.96;86.77
53758;BME280;39674;59.860;30.672;2023-06-10T02:07:13;102380.97;;;7.18;85.71
53758;BME280;39674;59.860;30.672;2023-06-10T02:13:50;102334.59;;;7.15;87.21
53758;BME280;39674;59.860;30.672;2023-06-10T02:16:51;102433.72;;;7.80;86.15
53758;BME280;39674;59.860;30.672;2023-06-10T02:20:05;102305.06;;;6.92;85.09
53758;BME280;39674;59.860;30.672;2023-06-10T02:22:41;102380.06;;;7.20;84.99
53758;BME280;39674;59.860;30.672;2023-06-10T02:25:37;102359.44;;;6.83;86.19
53758;BME280;39674;59.860;30.672;2023-06-10T02:28:39;102364.75;;;6.74;86.39
53758;BME280;39674;59.860;30.672;2023-06-10T02:31:15;102338.78;;;6.40;87.43
53758;BME280;39674;59.860;30.672;2023-06-10T02:33:59;102443.31;;;6.99;88.25
53758;BME280;39674;59.860;30.672;2023-06-10T02:36:37;102397.22;;;6.68;88.53
53758;BME280;39674;59.860;30.672;2023-06-10T02:39:29;102319.75;;;6.15;88.97
53758;BME280;39674;59.860;30.672;2023-06-10T02:42:00;102372.88;;;6.45;91.44
53758;BME280;39674;59.860;30.672;2023-06-10T02:44:40;102386.81;;;6.53;90.46
53758;BME280;39674;59.860;30.672;2023-06-10T02:47:26;102472.25;;;7.00;90.99
53758;BME280;39674;59.860;30.672;2023-06-10T02:50:02;102376.38;;;6.45;90.45
53758;BME280;39674;59.860;30.672;2023-06-10T02:53:40;102339.75;;;6.28;90.67
53758;BME280;39674;59.860;30.672;2023-06-10T02:56:25;102419.84;;;6.83;92.15
53758;BME280;39674;59.860;30.672;2023-06-10T02:59:15;102389.19;;;6.82;91.08
53758;BME280;39674;59.860;30.672;2023-06-10T03:02:29;102427.34;;;7.23;90.91
53758;BME280;39674;59.860;30.672;2023-06-10T03:06:14;102399.06;;;7.44;91.30
53758;BME280;39674;59.860;30.672;2023-06-10T03:09:54;102490.91;;;8.36;89.80
53758;BME280;39674;59.860;30.672;2023-06-10T04:10:51;102428.63;;;10.26;81.46
53758;BME280;39674;59.860;30.672;2023-06-10T05:56:56;102524.81;;;13.14;61.31
53758;BME280;39674;59.860;30.672;2023-06-10T06:01:00;102619.22;;;13.48;60.26
53758;BME280;39674;59.860;30.672;2023-06-10T06:04:01;102569.97;;;12.84;59.90
53758;BME280;39674;59.860;30.672;2023-06-10T06:06:39;102544.81;;;12.40;61.11
53758;BME280;39674;59.860;30.672;2023-06-10T06:09:11;102480.19;;;11.84;61.58
53758;BME280;39674;59.860;30.672;2023-06-10T06:11:47;102612.44;;;12.53;62.62
53758;BME280;39674;59.860;30.672;2023-06-10T06:14:21;102543.06;;;12.09;62.90
53758;BME280;39674;59.860;30.672;2023-06-10T06:17:11;102573.59;;;12.22;62.38
53758;BME280;39674;59.860;30.672;2023-06-10T06:19:40;102533.47;;;12.04;63.57
53758;BME280;39674;59.860;30.672;2023-06-10T06:22:18;102577.81;;;12.29;61.81
53758;BME280;39674;59.860;30.672;2023-06-10T06:24:52;102517.06;;;11.90;60.72
53758;BME280;39674;59.860;30.672;2023-06-10T06:27:25;102545.09;;;11.99;59.80
53758;BME280;39674;59.860;30.672;2023-06-10T06:29:56;102581.72;;;12.16;60.18
53758;BME280;39674;59.860;30.672;2023-06-10T06:32:28;102543.56;;;11.90;59.29
53758;BME280;39674;59.860;30.672;2023-06-10T06:34:58;102528.56;;;12.22;60.96
53758;BME280;39674;59.860;30.672;2023-06-10T06:37:27;102534.78;;;12.79;57.40
53758;BME280;39674;59.860;30.672;2023-06-10T06:40:13;102577.75;;;13.46;54.92
53758;BME280;39674;59.860;30.672;2023-06-10T06:42:47;102510.72;;;13.12;54.84
53758;BME280;39674;59.860;30.672;2023-06-10T06:45:27;102575.34;;;13.38;54.63
53758;BME280;39674;59.860;30.672;2023-06-10T06:48:04;102584.13;;;13.40;54.38
53758;BME280;39674;59.860;30.672;2023-06-10T06:50:35;102627.31;;;13.72;55.11
53758;BME280;39674;59.860;30.672;2023-06-10T06:53:05;102629.78;;;13.77;54.43
53758;BME280;39674;59.860;30.672;2023-06-10T06:55:34;102604.22;;;13.47;54.27
53758;BME280;39674;59.860;30.672;2023-06-10T06:58:05;102591.34;;;13.35;54.62
53758;BME280;39674;59.860;30.672;2023-06-10T07:00:40;102567.59;;;13.04;54.04
53758;BME280;39674;59.860;30.672;2023-06-10T07:03:13;102615.38;;;13.02;55.46
53758;BME280;39674;59.860;30.672;2023-06-10T07:05:42;102604.25;;;12.91;56.49
53758;BME280;39674;59.860;30.672;2023-06-10T07:08:14;102536.78;;;12.43;56.00
53758;BME280;39674;59.860;30.672;2023-06-10T07:10:43;102634.38;;;12.88;56.44
53758;BME280;39674;59.860;30.672;2023-06-10T07:13:12;102587.59;;;12.57;55.64
53758;BME280;39674;59.860;30.672;2023-06-10T07:15:43;102578.94;;;12.52;56.71
53758;BME280;39674;59.860;30.672;2023-06-10T07:18:15;102640.53;;;12.89;56.57
53758;BME280;39674;59.860;30.672;2023-06-10T07:20:44;102664.09;;;12.99;56.92
53758;BME280;39674;59.860;30.672;2023-06-10T07:23:13;102653.66;;;12.93;56.58
53758;BME280;39674;59.860;30.672;2023-06-10T07:25:43;102615.56;;;12.67;56.75
53758;BME280;39674;59.860;30.672;2023-06-10T07:28:14;102667.94;;;12.89;56.49
53758;BME280;39674;59.860;30.672;2023-06-10T07:30:49;102549.03;;;12.17;56.21
53758;BME280;39674;59.860;30.672;2023-06-10T07:33:18;102662.72;;;12.86;56.27
53758;BME280;39674;59.860;30.672;2023-06-10T07:35:48;102592.31;;;12.47;56.12
53758;BME280;39674;59.860;30.672;2023-06-10T07:38:25;102618.34;;;12.63;55.33
53758;BME280;39674;59.860;30.672;2023-06-10T07:41:03;102671.72;;;13.10;55.74
53758;BME280;39674;59.860;30.672;2023-06-10T07:43:38;102585.38;;;12.42;54.57
53758;BME280;39674;59.860;30.672;2023-06-10T07:46:12;102631.56;;;12.64;55.38
53758;BME280;39674;59.860;30.672;2023-06-10T07:48:59;102547.34;;;12.14;56.05
53758;BME280;39674;59.860;30.672;2023-06-10T07:51:30;102626.34;;;12.61;57.24
53758;BME280;39674;59.860;30.672;2023-06-10T07:53:58;102673.16;;;12.92;57.35
53758;BME280;39674;59.860;30.672;2023-06-10T07:56:27;102676.56;;;12.97;57.03
53758;BME280;39674;59.860;30.672;2023-06-10T07:59:09;102646.22;;;12.76;57.16
53758;BME280;39674;59.860;30.672;2023-06-10T08:01:40;102642.59;;;12.79;57.11
53758;BME280;39674;59.860;30.672;2023-06-10T08:04:24;102691.91;;;13.16;56.97
53758;BME280;39674;59.860;30.672;2023-06-10T08:06:53;102655.88;;;12.79;57.82
53758;BME280;39674;59.860;30.672;2023-06-10T08:09:42;102690.41;;;13.07;56.67
53758;BME280;39674;59.860;30.672;2023-06-10T08:12:19;102645.25;;;12.79;57.25
53758;BME280;39674;59.860;30.672;2023-06-10T08:14:55;102649.81;;;12.75;56.65
53758;BME280;39674;59.860;30.672;2023-06-10T08:17:36;102704.00;;;12.96;56.39
53758;BME280;39674;59.860;30.672;2023-06-10T08:20:25;102687.59;;;12.82;56.13
53758;BME280;39674;59.860;30.672;2023-06-10T08:23:02;102624.53;;;12.32;56.85
53758;BME280;39674;59.860;30.672;2023-06-10T08:25:39;102589.00;;;12.08;57.81
53758;BME280;39674;59.860;30.672;2023-06-10T08:28:10;102626.09;;;12.39;58.01
53758;BME280;39674;59.860;30.672;2023-06-10T08:30:39;102701.78;;;12.81;57.97
53758;BME280;39674;59.860;30.672;2023-06-10T08:33:12;102708.56;;;12.91;58.45
53758;BME280;39674;59.860;30.672;2023-06-10T08:35:44;102588.56;;;12.23;57.48
53758;BME280;39674;59.860;30.672;2023-06-10T08:38:23;102703.16;;;12.94;56.19
53758;BME280;39674;59.860;30.672;2023-06-10T08:40:56;102709.84;;;13.08;56.31
53758;BME280;39674;59.860;30.672;2023-06-10T08:43:33;102633.31;;;12.65;57.05
53758;BME280;39674;59.860;30.672;2023-06-10T08:46:05;102672.34;;;12.90;56.50
53758;BME280;39674;59.860;30.672;2023-06-10T08:48:44;102640.06;;;12.76;56.50
53758;BME280;39674;59.860;30.672;2023-06-10T08:51:17;102641.69;;;12.80;55.94
53758;BME280;39674;59.860;30.672;2023-06-10T08:53:50;102704.94;;;13.24;55.32
53758;BME280;39674;59.860;30.672;2023-06-10T08:56:25;102674.25;;;13.15;55.81
53758;BME280;39674;59.860;30.672;2023-06-10T08:59:00;102714.19;;;13.40;55.30
53758;BME280;39674;59.860;30.672;2023-06-10T09:01:32;102722.63;;;13.53;55.01
53758;BME280;39674;59.860;30.672;2023-06-10T09:04:05;102692.00;;;13.41;52.86
53758;BME280;39674;59.860;30.672;2023-06-10T09:06:35;102704.47;;;13.68;54.86
53758;BME280;39674;59.860;30.672;2023-06-10T09:09:06;102713.28;;;13.95;51.99
53758;BME280;39674;59.860;30.672;2023-06-10T09:11:35;102668.06;;;13.71;54.36
53758;BME280;39674;59.860;30.672;2023-06-10T09:14:05;102668.72;;;13.78;53.61
53758;BME280;39674;59.860;30.672;2023-06-10T09:16:34;102720.53;;;14.17;54.25
53758;BME280;39674;59.860;30.672;2023-06-10T09:19:09;102689.44;;;13.93;51.79
53758;BME280;39674;59.860;30.672;2023-06-10T09:21:41;102719.88;;;14.10;52.73
53758;BME280;39674;59.860;30.672;2023-06-10T09:24:10;102642.34;;;13.72;50.61
53758;BME280;39674;59.860;30.672;2023-06-10T09:26:38;102724.25;;;14.11;47.95
53758;BME280;39674;59.860;30.672;2023-06-10T09:29:18;102604.19;;;13.49;50.72
53758;BME280;39674;59.860;30.672;2023-06-10T09:31:55;102710.13;;;13.84;48.80
53758;BME280;39674;59.860;30.672;2023-06-10T09:34:26;102710.06;;;13.85;51.24
53758;BME280;39674;59.860;30.672;2023-06-10T09:36:56;102719.78;;;13.86;51.39
53758;BME280;39674;59.860;30.672;2023-06-10T09:39:25;102719.38;;;13.99;51.04
53758;BME280;39674;59.860;30.672;2023-06-10T09:41:54;102674.22;;;13.72;50.66
53758;BME280;39674;59.860;30.672;2023-06-10T09:44:23;102630.13;;;13.41;50.51
53758;BME280;39674;59.860;30.672;2023-06-10T09:46:52;102623.00;;;13.41;50.45
53758;BME280;39674;59.860;30.672;2023-06-10T09:49:21;102630.88;;;13.96;50.56
53758;BME280;39674;59.860;30.672;2023-06-10T09:51:51;102720.88;;;15.29;50.19
53758;BME280;39674;59.860;30.672;2023-06-10T09:54:46;102604.59;;;15.30;47.48
53758;BME280;39674;59.860;30.672;2023-06-10T09:57:17;102712.16;;;16.33;44.03
53758;BME280;39674;59.860;30.672;2023-06-10T09:59:48;102641.94;;;16.14;42.86
53758;BME280;39674;59.860;30.672;2023-06-10T10:02:22;102689.28;;;16.28;42.43
53758;BME280;39674;59.860;30.672;2023-06-10T10:04:51;102709.97;;;16.62;43.85
53758;BME280;39674;59.860;30.672;2023-06-10T10:07:30;102654.38;;;16.53;42.55
53758;BME280;39674;59.860;30.672;2023-06-10T10:10:03;102721.47;;;16.83;42.47
53758;BME280;39674;59.860;30.672;2023-06-10T10:12:34;102725.41;;;16.56;42.29
53758;BME280;39674;59.860;30.672;2023-06-10T10:15:12;102649.19;;;16.10;44.14
53758;BME280;39674;59.860;30.672;2023-06-10T10:17:49;102707.78;;;16.91;43.06
53758;BME280;39674;59.860;30.672;2023-06-10T10:20:27;102648.81;;;16.97;41.44
53758;BME280;39674;59.860;30.672;2023-06-10T10:23:03;102616.38;;;17.05;39.75
53758;BME280;39674;59.860;30.672;2023-06-10T10:25:39;102672.13;;;17.67;39.22
53758;BME280;39674;59.860;30.672;2023-06-10T10:28:11;102605.78;;;17.58;39.12
53758;BME280;39674;59.860;30.672;2023-06-10T10:30:52;102646.00;;;18.07;37.90
53758;BME280;39674;59.860;30.672;2023-06-10T10:33:48;102661.22;;;18.40;36.81
53758;BME280;39674;59.860;30.672;2023-06-10T10:36:26;102654.59;;;18.48;37.01
53758;BME280;39674;59.860;30.672;2023-06-10T10:39:02;102638.59;;;18.30;33.40
53758;BME280;39674;59.860;30.672;2023-06-10T10:41:34;102694.38;;;18.54;36.22
53758;BME280;39674;59.860;30.672;2023-06-10T10:44:08;102616.00;;;18.02;34.59
53758;BME280;39674;59.860;30.672;2023-06-10T10:46:48;102725.63;;;18.87;36.00
53758;BME280;39674;59.860;30.672;2023-06-10T10:49:18;102724.38;;;18.94;33.91
53758;BME280;39674;59.860;30.672;2023-06-10T10:52:00;102728.00;;;19.41;34.46
53758;BME280;39674;59.860;30.672;2023-06-10T10:54:31;102666.34;;;19.11;33.79
53758;BME280;39674;59.860;30.672;2023-06-10T10:57:13;102678.06;;;19.40;34.00
53758;BME280;39674;59.860;30.672;2023-06-10T11:00:00;102710.81;;;19.45;33.51
53758;BME280;39674;59.860;30.672;2023-06-10T11:02:37;102658.53;;;19.22;32.63
53758;BME280;39674;59.860;30.672;2023-06-10T11:05:10;102714.28;;;19.78;32.85
53758;BME280;39674;59.860;30.672;2023-06-10T11:07:38;102708.44;;;19.71;32.96
53758;BME280;39674;59.860;30.672;2023-06-10T11:10:10;102706.84;;;19.83;32.43
53758;BME280;39674;59.860;30.672;2023-06-10T11:12:42;102718.25;;;20.02;32.64
53758;BME280;39674;59.860;30.672;2023-06-10T11:15:19;102726.28;;;20.02;31.50
53758;BME280;39674;59.860;30.672;2023-06-10T11:18:09;102688.44;;;19.93;31.81
53758;BME280;39674;59.860;30.672;2023-06-10T11:20:56;102717.56;;;19.99;31.84
53758;BME280;39674;59.860;30.672;2023-06-10T11:23:38;102726.44;;;19.99;32.17
53758;BME280;39674;59.860;30.672;2023-06-10T11:26:15;102726.03;;;19.75;30.64
53758;BME280;39674;59.860;30.672;2023-06-10T11:29:04;102714.31;;;20.08;30.47
53758;BME280;39674;59.860;30.672;2023-06-10T11:31:50;102649.72;;;19.66;31.43
53758;BME280;39674;59.860;30.672;2023-06-10T11:34:23;102722.94;;;19.83;30.90
53758;BME280;39674;59.860;30.672;2023-06-10T11:36:51;102712.59;;;19.45;29.15
53758;BME280;39674;59.860;30.672;2023-06-10T11:39:21;102722.66;;;19.25;29.49
53758;BME280;39674;59.860;30.672;2023-06-10T11:41:53;102673.00;;;18.86;30.69
53758;BME280;39674;59.860;30.672;2023-06-10T11:44:27;102715.84;;;18.86;30.80
53758;BME280;39674;59.860;30.672;2023-06-10T11:46:57;102679.31;;;18.35;31.34
53758;BME280;39674;59.860;30.672;2023-06-10T11:49:27;102613.16;;;17.70;31.37
53758;BME280;39674;59.860;30.672;2023-06-10T11:51:57;102679.69;;;17.94;31.24
53758;BME280;39674;59.860;30.672;2023-06-10T11:54:32;102717.09;;;17.94;31.85
53758;BME280;39674;59.860;30.672;2023-06-10T11:57:05;102689.06;;;17.48;31.93
53758;BME280;39674;59.860;30.672;2023-06-10T11:59:44;102616.19;;;16.72;32.04
53758;BME280;39674;59.860;30.672;2023-06-10T12:02:16;102594.31;;;16.44;32.45
53758;BME280;39674;59.860;30.672;2023-06-10T12:04:48;102688.78;;;16.78;32.29
53758;BME280;39674;59.860;30.672;2023-06-10T12:07:20;102717.09;;;16.82;32.17
53758;BME280;39674;59.860;30.672;2023-06-10T12:09:59;102670.88;;;16.42;32.31
53758;BME280;39674;59.860;30.672;2023-06-10T12:12:30;102717.78;;;16.46;33.28
53758;BME280;39674;59.860;30.672;2023-06-10T12:15:02;102656.44;;;15.86;33.58
53758;BME280;39674;59.860;30.672;2023-06-10T12:17:38;102732.81;;;16.28;33.60
53758;BME280;39674;59.860;30.672;2023-06-10T12:20:07;102729.41;;;16.45;33.52
53758;BME280;39674;59.860;30.672;2023-06-10T12:22:41;102700.88;;;15.85;33.51
53758;BME280;39674;59.860;30.672;2023-06-10T12:25:12;102740.44;;;15.95;34.54
53758;BME280;39674;59.860;30.672;2023-06-10T12:28:10;102628.72;;;15.47;34.87
53758;BME280;39674;59.860;30.672;2023-06-10T12:31:08;102728.19;;;15.91;35.00
53758;BME280;39674;59.860;30.672;2023-06-10T12:33:40;102721.63;;;15.77;35.09
53758;BME280;39674;59.860;30.672;2023-06-10T12:36:17;102698.94;;;15.67;34.82
53758;BME280;39674;59.860;30.672;2023-06-10T12:38:48;102694.25;;;15.51;35.07
53758;BME280;39674;59.860;30.672;2023-06-10T12:41:19;102723.72;;;15.69;34.70
53758;BME280;39674;59.860;30.672;2023-06-10T12:43:49;102720.88;;;15.51;34.54
53758;BME280;39674;59.860;30.672;2023-06-10T12:46:17;102632.88;;;14.88;35.59
53758;BME280;39674;59.860;30.672;2023-06-10T12:48:50;102682.63;;;15.32;35.63
53758;BME280;39674;59.860;30.672;2023-06-10T12:51:24;102715.72;;;15.69;36.21
53758;BME280;39674;59.860;30.672;2023-06-10T12:53:56;102727.56;;;15.62;34.49
53758;BME280;39674;59.860;30.672;2023-06-10T12:56:26;102724.72;;;15.44;34.64
53758;BME280;39674;59.860;30.672;2023-06-10T12:58:55;102722.00;;;15.46;34.85
53758;BME280;39674;59.860;30.672;2023-06-10T13:01:28;102726.81;;;15.58;35.89
53758;BME280;39674;59.860;30.672;2023-06-10T13:04:01;102645.53;;;15.05;34.71
53758;BME280;39674;59.860;30.672;2023-06-10T13:06:31;102686.06;;;15.34;36.06
53758;BME280;39674;59.860;30.672;2023-06-10T13:09:03;102723.47;;;15.75;35.68
53758;BME280;39674;59.860;30.672;2023-06-10T13:11:34;102713.63;;;15.77;35.67
53758;BME280;39674;59.860;30.672;2023-06-10T13:14:07;102652.28;;;15.36;33.93
53758;BME280;39674;59.860;30.672;2023-06-10T13:16:37;102714.00;;;15.46;35.82
53758;BME280;39674;59.860;30.672;2023-06-10T13:19:06;102601.69;;;14.69;37.03
53758;BME280;39674;59.860;30.672;2023-06-10T13:21:35;102700.44;;;15.30;37.05
53758;BME280;39674;59.860;30.672;2023-06-10T13:24:04;102719.16;;;15.50;37.06
53758;BME280;39674;59.860;30.672;2023-06-10T13:26:33;102724.09;;;15.60;38.34
53758;BME280;39674;59.860;30.672;2023-06-10T13:29:01;102713.09;;;15.47;36.59
53758;BME280;39674;59.860;30.672;2023-06-10T13:31:36;102671.66;;;15.17;36.59
53758;BME280;39674;59.860;30.672;2023-06-10T13:34:04;102688.06;;;15.29;36.43
53758;BME280;39674;59.860;30.672;2023-06-10T13:36:33;102665.66;;;15.12;37.48
53758;BME280;39674;59.860;30.672;2023-06-10T13:39:01;102669.22;;;15.11;36.58
53758;BME280;39674;59.860;30.672;2023-06-10T13:41:30;102666.63;;;14.87;36.75
53758;BME280;39674;59.860;30.672;2023-06-10T13:43:59;102705.16;;;14.99;37.77
53758;BME280;39674;59.860;30.672;2023-06-10T13:46:37;102635.94;;;14.53;37.96
53758;BME280;39674;59.860;30.672;2023-06-10T13:49:07;102636.88;;;14.52;37.78
53758;BME280;39674;59.860;30.672;2023-06-10T13:51:36;102704.44;;;14.72;37.34
53758;BME280;39674;59.860;30.672;2023-06-10T13:54:05;102695.56;;;14.71;38.82
53758;BME280;39674;59.860;30.672;2023-06-10T13:56:34;102707.00;;;14.73;38.84
53758;BME280;39674;59.860;30.672;2023-06-10T13:59:05;102662.09;;;14.40;39.17
53758;BME280;39674;59.860;30.672;2023-06-10T14:01:34;102701.28;;;14.60;39.10
53758;BME280;39674;59.860;30.672;2023-06-10T14:04:22;102688.75;;;14.63;38.90
53758;BME280;39674;59.860;30.672;2023-06-10T14:06:54;102568.75;;;13.75;38.64
53758;BME280;39674;59.860;30.672;2023-06-10T14:10:08;102637.28;;;14.16;38.30
53758;BME280;39674;59.860;30.672;2023-06-10T14:12:41;102699.84;;;14.50;38.43
53758;BME280;39674;59.860;30.672;2023-06-10T14:15:17;102574.06;;;13.75;38.08
53758;BME280;39674;59.860;30.672;2023-06-10T14:17:53;102688.47;;;14.47;38.34
53758;BME280;39674;59.860;30.672;2023-06-10T14:20:24;102683.91;;;14.50;38.23
53758;BME280;39674;59.860;30.672;2023-06-10T14:23:01;102553.59;;;13.79;39.02
53758;BME280;39674;59.860;30.672;2023-06-10T14:25:34;102649.63;;;14.42;38.94
53758;BME280;39674;59.860;30.672;2023-06-10T14:28:21;102633.84;;;14.38;38.59
53758;BME280;39674;59.860;30.672;2023-06-10T14:30:56;102680.78;;;14.63;38.82
53758;BME280;39674;59.860;30.672;2023-06-10T14:33:28;102623.06;;;14.17;38.89
53758;BME280;39674;59.860;30.672;2023-06-10T14:36:05;102659.97;;;14.26;38.64
53758;BME280;39674;59.860;30.672;2023-06-10T14:38:34;102676.59;;;14.32;39.93
53758;BME280;39674;59.860;30.672;2023-06-10T14:41:10;102568.97;;;13.69;39.35
53758;BME280;39674;59.860;30.672;2023-06-10T14:43:45;102651.06;;;14.27;39.26
53758;BME280;39674;59.860;30.672;2023-06-10T14:46:15;102663.22;;;14.35;38.96
53758;BME280;39674;59.860;30.672;2023-06-10T14:48:44;102613.66;;;14.08;39.51
53758;BME280;39674;59.860;30.672;2023-06-10T14:51:19;102611.81;;;14.10;39.38
53758;BME280;39674;59.860;30.672;2023-06-10T14:53:59;102595.19;;;14.04;39.55
53758;BME280;39674;59.860;30.672;2023-06-10T14:56:44;102604.00;;;14.06;39.25
53758;BME280;39674;59.860;30.672;2023-06-10T14:59:15;102659.59;;;14.36;39.65
53758;BME280;39674;59.860;30.672;2023-06-10T15:01:48;102668.53;;;14.35;39.43
53758;BME280;39674;59.860;30.672;2023-06-10T15:04:23;102521.91;;;13.49;39.61
53758;BME280;39674;59.860;30.672;2023-06-10T15:06:54;102587.19;;;13.80;40.04
53758;BME280;39674;59.860;30.672;2023-06-10T15:09:27;102661.69;;;14.27;39.39
53758;BME280;39674;59.860;30.672;2023-06-10T15:11:58;102675.91;;;14.26;38.83
53758;BME280;39674;59.860;30.672;2023-06-10T15:14:30;102670.91;;;14.17;38.92
53758;BME280;39674;59.860;30.672;2023-06-10T15:17:03;102670.34;;;14.07;40.70
53758;BME280;39674;59.860;30.672;2023-06-10T15:19:42;102591.72;;;13.51;39.86
53758;BME280;39674;59.860;30.672;2023-06-10T15:22:19;102665.47;;;13.95;41.77
53758;BME280;39674;59.860;30.672;2023-06-10T15:24:50;102614.41;;;13.61;41.47
53758;BME280;39674;59.860;30.672;2023-06-10T15:27:21;102666.03;;;13.79;42.59
53758;BME280;39674;59.860;30.672;2023-06-10T15:29:51;102668.81;;;13.75;41.35
53758;BME280;39674;59.860;30.672;2023-06-10T15:32:28;102670.03;;;13.64;42.93
53758;BME280;39674;59.860;30.672;2023-06-10T15:34:59;102616.38;;;13.26;42.84
53758;BME280;39674;59.860;30.672;2023-06-10T15:37:47;102611.47;;;13.14;43.30
53758;BME280;39674;59.860;30.672;2023-06-10T15:40:28;102671.34;;;13.51;42.82
53758;BME280;39674;59.860;30.672;2023-06-10T15:42:58;102616.06;;;13.09;41.23
53758;BME280;39674;59.860;30.672;2023-06-10T15:45:27;102680.47;;;13.44;40.78
53758;BME280;39674;59.860;30.672;2023-06-10T15:47:59;102684.13;;;13.40;41.94
53758;BME280;39674;59.860;30.672;2023-06-10T15:50:28;102670.28;;;13.28;42.31
53758;BME280;39674;59.860;30.672;2023-06-10T15:53:00;102655.63;;;13.16;42.54
53758;BME280;39674;59.860;30.672;2023-06-10T15:55:39;102640.97;;;13.05;41.48
53758;BME280;39674;59.860;30.672;2023-06-10T15:58:14;102624.69;;;12.87;43.78
53758;BME280;39674;59.860;30.672;2023-06-10T16:00:44;102677.53;;;13.23;41.52
53758;BME280;39674;59.860;30.672;2023-06-10T16:03:13;102693.53;;;13.20;40.22
53758;BME280;39674;59.860;30.672;2023-06-10T16:05:41;102618.94;;;12.73;40.92
53758;BME280;39674;59.860;30.672;2023-06-10T16:08:14;102688.53;;;13.11;43.62
53758;BME280;39674;59.860;30.672;2023-06-10T16:10:43;102683.31;;;13.08;42.69
53758;BME280;39674;59.860;30.672;2023-06-10T16:13:22;102636.22;;;12.86;42.49
53758;BME280;39674;59.860;30.672;2023-06-10T16:15:56;102681.66;;;13.04;42.27
53758;BME280;39674;59.860;30.672;2023-06-10T16:18:29;102691.13;;;13.12;41.60
53758;BME280;39674;59.860;30.672;2023-06-10T16:21:02;102684.22;;;13.07;41.88
53758;BME280;39674;59.860;30.672;2023-06-10T16:23:32;102688.59;;;13.08;42.77
53758;BME280;39674;59.860;30.672;2023-06-10T16:26:00;102681.56;;;13.07;42.87
53758;BME280;39674;59.860;30.672;2023-06-10T16:28:30;102693.91;;;13.08;43.10
53758;BME280;39674;59.860;30.672;2023-06-10T16:30:59;102682.41;;;13.09;42.64
53758;BME280;39674;59.860;30.672;2023-06-10T16:33:30;102544.25;;;12.28;42.27
53758;BME280;39674;59.860;30.672;2023-06-10T16:36:07;102632.84;;;12.81;43.61
53758;BME280;39674;59.860;30.672;2023-06-10T16:38:37;102655.53;;;12.91;43.81
53758;BME280;39674;59.860;30.672;2023-06-10T16:41:08;102680.84;;;13.02;43.17
53758;BME280;39674;59.860;30.672;2023-06-10T16:43:37;102665.38;;;12.86;42.77
53758;BME280;39674;59.860;30.672;2023-06-10T16:46:07;102673.25;;;12.89;43.14
53758;BME280;39674;59.860;30.672;2023-06-10T16:48:36;102600.47;;;12.40;43.15
53758;BME280;39674;59.860;30.672;2023-06-10T16:51:11;102642.19;;;12.64;43.79
53758;BME280;39674;59.860;30.672;2023-06-10T16:53:44;102689.91;;;12.94;43.76
53758;BME280;39674;59.860;30.672;2023-06-10T16:56:12;102644.00;;;12.62;43.45
53758;BME280;39674;59.860;30.672;2023-06-10T16:58:42;102599.88;;;12.30;43.81
53758;BME280;39674;59.860;30.672;2023-06-10T17:01:11;102674.53;;;12.76;44.23
53758;BME280;39674;59.860;30.672;2023-06-10T17:03:42;102672.84;;;12.73;44.09
53758;BME280;39674;59.860;30.672;2023-06-10T17:06:17;102695.63;;;12.80;43.21
53758;BME280;39674;59.860;30.672;2023-06-10T17:08:48;102659.91;;;12.62;43.90
53758;BME280;39674;59.860;30.672;2023-06-10T17:11:18;102628.69;;;12.41;43.84
53758;BME280;39674;59.860;30.672;2023-06-10T17:13:53;102651.47;;;12.48;44.74
53758;BME280;39674;59.860;30.672;2023-06-10T17:16:25;102686.16;;;12.72;45.09
53758;BME280;39674;59.860;30.672;2023-06-10T17:18:56;102663.75;;;12.52;43.27
53758;BME280;39674;59.860;30.672;2023-06-10T17:21:39;102677.78;;;12.54;43.44
53758;BME280;39674;59.860;30.672;2023-06-10T17:24:43;102694.31;;;12.64;43.34
53758;BME280;39674;59.860;30.672;2023-06-10T17:27:20;102605.72;;;12.10;45.13
53758;BME280;39674;59.860;30.672;2023-06-10T17:29:58;102691.88;;;12.56;44.74
53758;BME280;39674;59.860;30.672;2023-06-10T17:32:32;102648.50;;;12.27;45.10